Time;durP1;ratioP1;P1;durP2;ratioP2;P2;SDS_P1;SDS_P2;PMS_P1;PMS_P2;Temp;Humidity;BMP_temperature;BMP_pressure;BME280_temperature;BME280_humidity;BME280_pressure;Samples;Min_cycle;Max_cycle;Signal;HPM_P1;HPM_P2
2022/07/02 08:20:17;;;;;;;4.62;2.30;;;;;;;19.86;71.16;101471.23;1669308;83;20971;-89
2022/07/02 08:22:46;;;;;;;5.05;2.52;;;;;;;19.93;70.86;101470.41;1669067;86;21004;-89
2022/07/02 08:25:14;;;;;;;4.90;3.10;;;;;;;19.97;70.47;101478.09;1669185;85;21305;-90
2022/07/02 08:27:42;;;;;;;4.03;2.87;;;;;;;19.90;69.69;101479.43;1669212;86;21295;-89
2022/07/02 08:30:10;;;;;;;3.58;2.37;;;;;;;19.86;69.65;101483.20;1669173;86;21050;-91
2022/07/02 08:32:38;;;;;;;5.22;2.35;;;;;;;19.95;69.67;101476.03;1669001;86;21528;-91
2022/07/02 08:35:06;;;;;;;6.70;2.83;;;;;;;20.08;69.77;101477.47;1657208;85;21546;-91
2022/07/02 08:37:34;;;;;;;6.95;2.27;;;;;;;20.17;69.32;101484.89;1650023;86;21038;-92
2022/07/02 08:40:01;;;;;;;3.75;2.45;;;;;;;20.24;69.12;101478.27;1669442;85;21076;-91
2022/07/02 08:42:32;;;;;;;3.17;2.30;;;;;;;20.36;69.29;101478.46;1669020;85;21147;-90
2022/07/02 08:45:03;;;;;;;2.45;2.05;;;;;;;20.43;68.85;101485.14;1668950;85;21030;-88
2022/07/02 08:47:31;;;;;;;6.90;2.40;;;;;;;20.46;68.37;101471.16;1664628;85;21026;-89
2022/07/02 08:50:00;;;;;;;5.75;2.60;;;;;;;20.52;68.10;101485.89;1635006;86;21086;-88
2022/07/02 08:52:28;;;;;;;4.65;2.45;;;;;;;20.60;67.90;101473.00;1650782;85;21022;-92
2022/07/02 08:54:56;;;;;;;3.15;1.90;;;;;;;20.68;68.00;101473.86;1639161;85;21277;-88
2022/07/02 08:57:27;;;;;;;7.30;2.65;;;;;;;20.74;67.53;101481.45;1635357;86;21500;-88
2022/07/02 08:59:54;;;;;;;3.87;2.52;;;;;;;20.72;67.04;101482.02;1633298;86;21503;-91
2022/07/02 09:02:22;;;;;;;3.30;2.05;;;;;;;20.65;66.65;101479.38;1638379;86;21511;-90
2022/07/02 09:04:51;;;;;;;5.67;2.37;;;;;;;20.56;66.52;101478.11;1629261;85;21487;-89
2022/07/02 09:07:19;;;;;;;6.05;2.25;;;;;;;20.54;66.68;101478.70;1635837;86;21111;-90
2022/07/02 09:09:48;;;;;;;4.10;2.22;;;;;;;20.58;66.57;101476.70;1654273;85;21143;-89
2022/07/02 09:12:15;;;;;;;3.35;1.80;;;;;;;20.65;66.73;101473.57;1633006;85;21096;-88
2022/07/02 09:14:44;;;;;;;4.28;1.70;;;;;;;20.82;66.62;101474.33;1633743;85;21078;-90
2022/07/02 09:17:12;;;;;;;3.75;2.10;;;;;;;21.06;66.53;101479.89;1635471;86;21538;-88
2022/07/02 09:19:40;;;;;;;4.70;2.27;;;;;;;21.28;66.23;101478.88;1640306;85;21147;-89
2022/07/02 09:22:09;;;;;;;3.83;2.27;;;;;;;21.36;66.00;101488.57;1639353;85;21504;-88
2022/07/02 09:24:43;;;;;;;3.50;2.37;;;;;;;21.28;65.17;101490.87;1667087;85;21034;-89
2022/07/02 09:27:14;;;;;;;3.55;2.33;;;;;;;21.14;64.60;101483.80;1651393;86;21079;-89
2022/07/02 09:29:55;;;;;;;4.25;2.60;;;;;;;21.09;64.81;101483.69;1650659;85;21476;-90
2022/07/02 09:32:22;;;;;;;3.90;2.17;;;;;;;21.13;64.67;101479.41;1650460;86;21138;-89
2022/07/02 09:34:52;;;;;;;6.22;1.70;;;;;;;21.21;64.15;101482.06;1651060;85;21035;-88
2022/07/02 09:37:24;;;;;;;3.83;2.35;;;;;;;21.31;64.57;101484.48;1652343;86;21004;-89
2022/07/02 09:39:57;;;;;;;3.70;2.00;;;;;;;21.36;63.65;101478.39;1650386;85;21042;-89
2022/07/02 09:42:33;;;;;;;6.65;1.92;;;;;;;21.42;63.53;101473.16;1652695;86;21445;-89
2022/07/02 09:45:03;;;;;;;4.67;2.17;;;;;;;21.64;64.23;101464.59;1639356;85;21134;-89
2022/07/02 09:47:39;;;;;;;5.60;1.67;;;;;;;21.98;64.48;101475.20;1668022;85;21031;-89
2022/07/02 09:50:12;;;;;;;3.35;1.77;;;;;;;22.17;63.83;101473.44;1669223;86;21031;-88
2022/07/02 09:52:54;;;;;;;3.95;1.90;;;;;;;22.21;62.83;101470.50;1669488;86;21011;-88
2022/07/02 09:55:41;;;;;;;5.37;1.92;;;;;;;22.16;62.23;101471.26;1668779;86;21066;-88
2022/07/02 09:58:04;;;;;;;3.25;2.20;;;;;;;22.27;62.27;101465.22;1661030;86;21046;-88
2022/07/02 10:00:34;;;;;;;5.58;2.33;;;;;;;22.33;61.72;101456.77;1669228;86;21552;-88
2022/07/02 10:03:02;;;;;;;4.53;2.08;;;;;;;22.35;61.69;101464.69;1669571;86;21046;-87
2022/07/02 10:05:33;;;;;;;5.08;2.05;;;;;;;22.26;61.24;101461.70;1669181;86;21027;-88
2022/07/02 10:08:05;;;;;;;1.82;1.42;;;;;;;22.20;61.05;101462.12;1669421;86;21031;-88
2022/07/02 10:10:40;;;;;;;3.47;1.80;;;;;;;22.29;61.13;101462.45;1669223;86;21135;-89
2022/07/02 10:13:09;;;;;;;4.15;2.17;;;;;;;22.35;60.82;101465.53;1669314;86;21536;-89
2022/07/02 10:15:42;;;;;;;3.35;1.85;;;;;;;22.37;60.52;101460.95;1669589;86;21055;-89
2022/07/02 10:18:10;;;;;;;4.28;1.67;;;;;;;22.51;60.22;101454.64;1669394;86;21102;-88
2022/07/02 10:20:37;;;;;;;3.98;1.90;;;;;;;22.71;60.10;101451.39;1660647;84;21070;-92
2022/07/02 10:23:06;;;;;;;3.50;1.77;;;;;;;23.02;60.48;101449.70;1646099;85;21110;-87
2022/07/02 10:25:34;;;;;;;;;;;;;;;23.36;60.28;101447.60;1623908;87;21075;-91
2022/07/02 10:28:01;;;;;;;2.92;1.80;;;;;;;23.52;59.55;101453.13;1647467;85;20210;-91
2022/07/02 10:30:34;;;;;;;3.17;1.70;;;;;;;23.49;59.06;101448.86;1642232;85;21475;-86
2022/07/02 10:33:38;;;;;;;3.37;1.27;;;;;;;23.38;58.52;101463.03;1644878;85;21061;-87
2022/07/02 10:36:10;;;;;;;3.47;1.42;;;;;;;23.40;58.12;101454.91;1646228;84;21127;-86
2022/07/02 10:38:38;;;;;;;3.87;1.65;;;;;;;23.67;58.14;101454.66;1651572;85;20996;-87
2022/07/02 10:41:09;;;;;;;1.33;1.20;;;;;;;23.99;57.74;101447.36;1672549;85;21099;-83
2022/07/02 10:43:39;;;;;;;2.55;1.42;;;;;;;24.31;57.20;101444.02;1668425;85;21023;-85
2022/07/02 10:46:09;;;;;;;3.15;1.60;;;;;;;24.68;57.17;101447.33;1671031;85;21095;-86
2022/07/02 10:48:53;;;;;;;1.80;1.22;;;;;;;25.08;56.22;101438.72;1676520;85;21124;-86
2022/07/02 10:51:23;;;;;;;2.45;1.52;;;;;;;25.45;56.17;101443.29;1647307;85;21460;-86
2022/07/02 10:53:59;;;;;;;4.78;1.62;;;;;;;25.98;56.05;101436.58;1676468;85;21031;-85
2022/07/02 10:56:30;;;;;;;6.08;1.57;;;;;;;26.10;55.18;101433.31;1676473;85;20996;-85
2022/07/02 10:58:57;;;;;;;8.10;1.82;;;;;;;25.91;54.65;101432.73;1676438;85;21547;-83
2022/07/02 11:01:25;;;;;;;2.17;1.47;;;;;;;25.68;54.12;101441.34;1676531;85;21140;-86
2022/07/02 11:03:59;;;;;;;3.52;1.87;;;;;;;25.39;53.74;101437.09;1654946;85;21493;-86
2022/07/02 11:06:34;;;;;;;1.85;1.37;;;;;;;25.11;53.47;101425.93;1675525;85;21023;-86
2022/07/02 11:09:04;;;;;;;1.77;1.20;;;;;;;25.00;53.86;101427.30;1676423;85;21030;-86
2022/07/02 11:11:37;;;;;;;3.62;1.47;;;;;;;25.34;53.85;101428.08;1676497;85;21606;-86
2022/07/02 11:14:07;;;;;;;1.70;1.20;;;;;;;25.71;53.85;101433.53;1677145;85;21377;-87
2022/07/02 11:16:41;;;;;;;4.47;1.10;;;;;;;26.03;53.09;101425.45;1676369;85;21134;-86
2022/07/02 11:19:16;;;;;;;1.57;0.90;;;;;;;26.32;52.46;101413.98;1676407;85;21515;-86
2022/07/02 11:21:44;;;;;;;3.22;1.20;;;;;;;26.68;51.85;101413.44;1667388;85;21066;-85
2022/07/02 11:24:13;;;;;;;1.82;0.90;;;;;;;26.95;51.28;101412.46;1659666;85;21027;-90
2022/07/02 11:26:42;;;;;;;2.95;0.75;;;;;;;27.06;49.89;101422.60;1644213;85;21500;-90
2022/07/02 11:29:18;;;;;;;2.15;0.70;;;;;;;27.24;49.14;101407.13;1642764;85;21101;-86
2022/07/02 11:31:51;;;;;;;1.95;0.80;;;;;;;27.55;49.11;101418.13;1650652;85;21048;-88
2022/07/02 11:34:24;;;;;;;1.90;1.10;;;;;;;27.56;47.93;101414.94;1660210;85;21078;-87
2022/07/02 11:36:51;;;;;;;1.82;1.10;;;;;;;27.23;47.55;101405.44;1659371;85;21603;-86
2022/07/02 11:39:22;;;;;;;2.50;1.00;;;;;;;26.84;48.02;101404.02;1661053;85;21102;-86
2022/07/02 11:41:49;;;;;;;2.60;1.20;;;;;;;26.54;48.17;101410.30;1657952;85;21067;-86
2022/07/02 11:44:28;;;;;;;3.65;1.30;;;;;;;26.61;48.30;101407.43;1662496;85;21519;-87
2022/07/02 11:47:00;;;;;;;;;;;;;;;26.80;48.29;101407.48;1667849;85;21023;-88
2022/07/02 11:49:40;;;;;;;3.42;1.40;;;;;;;27.18;48.26;101411.74;1676503;85;20664;-84
2022/07/02 11:52:06;;;;;;;2.83;1.35;;;;;;;27.39;47.91;101405.73;1676943;84;21378;-87
2022/07/02 11:54:40;;;;;;;2.80;1.05;;;;;;;27.55;47.53;101405.17;1676385;85;21543;-88
2022/07/02 11:57:07;;;;;;;4.80;1.40;;;;;;;27.74;47.28;101403.80;1676414;85;21019;-86
2022/07/02 11:59:34;;;;;;;1.72;0.98;;;;;;;27.95;46.66;101396.89;1676498;85;20996;-81
2022/07/02 12:02:02;;;;;;;3.25;1.20;;;;;;;28.19;46.78;101400.45;1676382;85;21030;-86
2022/07/02 12:04:29;;;;;;;6.05;1.37;;;;;;;28.24;46.28;101406.75;1676517;85;21937;-85
2022/07/02 12:07:01;;;;;;;1.80;0.90;;;;;;;27.90;45.81;101409.95;1676500;85;21027;-85
2022/07/02 12:09:26;;;;;;;3.67;0.90;;;;;;;27.56;45.45;101411.74;1675288;85;21540;-88
2022/07/02 12:11:56;;;;;;;2.10;1.00;;;;;;;27.18;45.02;101411.74;1676643;85;21035;-87
2022/07/02 12:14:30;;;;;;;3.50;1.00;;;;;;;26.83;45.33;101405.02;1677008;85;21022;-86
2022/07/02 12:16:59;;;;;;;2.58;0.93;;;;;;;26.98;46.05;101406.30;1676395;85;21144;-86
2022/07/02 12:19:32;;;;;;;1.42;1.10;;;;;;;27.38;46.09;101400.01;1676336;85;21026;-84
2022/07/02 12:22:01;;;;;;;1.92;0.90;;;;;;;27.59;45.69;101399.84;1676478;85;21003;-82
2022/07/02 12:24:38;;;;;;;2.27;1.37;;;;;;;27.57;45.12;101399.13;1655904;83;21039;-87
2022/07/02 12:27:08;;;;;;;2.85;1.40;;;;;;;27.34;44.68;101399.92;1645221;85;21301;-82
2022/07/02 12:29:54;;;;;;;1.90;0.90;;;;;;;27.07;44.58;101395.19;1644699;85;21493;-84
2022/07/02 12:32:29;;;;;;;2.58;1.62;;;;;;;26.79;44.39;101398.19;1646687;85;21513;-82
2022/07/02 12:34:59;;;;;;;2.30;1.07;;;;;;;26.55;44.41;101395.84;1641508;85;21128;-85
2022/07/02 12:37:37;;;;;;;2.20;1.07;;;;;;;26.36;44.15;101392.09;1641930;85;21097;-91
2022/07/02 12:40:19;;;;;;;1.30;1.00;;;;;;;26.17;43.77;101403.60;1645182;85;21070;-86
2022/07/02 12:42:59;;;;;;;4.05;0.70;;;;;;;25.97;43.48;101401.80;1639703;85;21665;-87
2022/07/02 12:45:33;;;;;;;4.62;0.90;;;;;;;25.88;43.54;101389.99;1645556;85;21023;-87
2022/07/02 12:48:08;;;;;;;1.98;0.90;;;;;;;25.89;43.71;101386.34;1644764;85;21043;-88
2022/07/02 12:50:41;;;;;;;1.87;0.90;;;;;;;25.82;44.09;101390.50;1645242;85;21398;-89
2022/07/02 12:53:13;;;;;;;2.42;1.05;;;;;;;25.90;44.29;101381.32;1642980;85;21567;-85
2022/07/02 12:55:47;;;;;;;1.55;0.90;;;;;;;26.30;44.32;101383.23;1643510;85;21159;-93
2022/07/02 12:58:15;;;;;;;2.30;0.70;;;;;;;26.70;43.74;101376.52;1642325;85;21035;-88
2022/07/02 13:00:44;;;;;;;1.77;0.85;;;;;;;27.04;42.50;101370.76;1642431;85;21049;-93
2022/07/02 13:03:20;;;;;;;1.20;0.70;;;;;;;27.32;42.17;101370.94;1642290;85;28182;-90
2022/07/02 13:05:50;;;;;;;1.87;1.17;;;;;;;27.49;41.75;101370.71;1643907;85;21027;-88
2022/07/02 13:08:20;;;;;;;1.67;1.05;;;;;;;27.59;41.62;101366.17;1638821;85;21101;-90
2022/07/02 13:10:51;;;;;;;1.77;0.85;;;;;;;27.78;41.72;101369.33;1645612;85;21501;-91
2022/07/02 13:13:20;;;;;;;1.80;0.90;;;;;;;28.07;41.57;101364.38;1641961;85;21479;-86
2022/07/02 13:15:47;;;;;;;2.05;1.37;;;;;;;28.32;41.44;101368.25;1644541;85;21573;-88
2022/07/02 13:18:15;;;;;;;2.08;1.10;;;;;;;28.19;40.85;101367.26;1649235;85;21075;-89
2022/07/02 13:20:45;;;;;;;2.25;1.20;;;;;;;28.18;41.73;101375.81;1683288;84;21213;-88
2022/07/02 13:23:13;;;;;;;1.45;1.05;;;;;;;28.35;42.19;101371.98;1696161;84;20996;-87
2022/07/02 13:25:41;;;;;;;3.08;1.20;;;;;;;28.32;41.94;101370.44;1696301;84;21082;-87
2022/07/02 13:28:08;;;;;;;1.70;0.95;;;;;;;28.08;42.04;101374.18;1696209;83;21031;-86
2022/07/02 13:30:36;;;;;;;1.77;0.90;;;;;;;27.96;41.74;101366.28;1696130;84;21457;-83
2022/07/02 13:33:03;;;;;;;3.27;1.20;;;;;;;27.89;41.88;101368.34;1696246;84;21158;-84
2022/07/02 13:35:32;;;;;;;1.30;0.98;;;;;;;27.66;41.83;101362.39;1696334;83;21058;-89
2022/07/02 13:37:59;;;;;;;3.67;1.25;;;;;;;27.27;41.82;101359.27;1696672;83;21015;-90
2022/07/02 13:40:26;;;;;;;2.77;1.12;;;;;;;26.98;41.99;101357.03;1696644;83;21549;-90
2022/07/02 13:42:53;;;;;;;1.77;1.10;;;;;;;26.68;42.39;101361.50;1696879;84;21094;-89
2022/07/02 13:45:20;;;;;;;3.05;1.10;;;;;;;26.52;42.52;101363.86;1697912;83;21150;-90
2022/07/02 13:47:48;;;;;;;2.27;1.12;;;;;;;26.46;42.44;101360.70;1696634;84;21552;-89
2022/07/02 13:50:15;;;;;;;1.82;1.12;;;;;;;26.44;42.53;101360.01;1696383;84;21007;-89
2022/07/02 13:52:42;;;;;;;1.60;1.17;;;;;;;26.54;42.16;101356.02;1696266;84;21027;-89
2022/07/02 13:55:10;;;;;;;2.25;1.32;;;;;;;26.71;42.13;101359.88;1696262;84;21039;-90
2022/07/02 13:57:38;;;;;;;2.35;0.98;;;;;;;26.75;41.78;101357.28;1696886;84;22073;-90
2022/07/02 14:00:06;;;;;;;1.92;1.10;;;;;;;26.85;41.56;101360.81;1696772;83;20995;-94
2022/07/02 14:02:35;;;;;;;1.70;1.10;;;;;;;26.71;41.09;101351.81;1695769;84;20943;-90
2022/07/02 14:05:02;;;;;;;2.05;1.00;;;;;;;26.54;41.20;101354.67;1696686;84;21527;-89
2022/07/02 14:07:29;;;;;;;1.45;0.90;;;;;;;26.35;41.28;101354.59;1696578;84;21298;-89
2022/07/02 14:09:57;;;;;;;1.98;1.22;;;;;;;26.23;41.50;101352.50;1696840;84;21952;-90
2022/07/02 14:12:25;;;;;;;1.57;0.98;;;;;;;26.19;42.05;101349.73;1696422;84;21046;-91
2022/07/02 14:14:52;;;;;;;2.47;1.10;;;;;;;26.30;42.31;101352.33;1696289;84;21086;-92
2022/07/02 14:17:19;;;;;;;1.70;0.95;;;;;;;26.55;42.44;101351.02;1696533;84;21090;-90
2022/07/02 14:19:47;;;;;;;2.30;1.27;;;;;;;26.71;41.81;101345.09;1696556;84;21019;-91
2022/07/02 14:22:17;;;;;;;2.12;1.10;;;;;;;26.85;41.60;101353.25;1695332;84;21243;-91
2022/07/02 14:24:43;;;;;;;2.55;1.40;;;;;;;27.02;41.69;101350.36;1696252;84;20999;-90
2022/07/02 14:27:10;;;;;;;1.15;0.80;;;;;;;27.11;41.43;101346.34;1696358;83;21039;-83
2022/07/02 14:29:38;;;;;;;2.08;0.95;;;;;;;27.19;41.67;101349.71;1696443;84;21519;-89
2022/07/02 14:32:06;;;;;;;2.27;1.10;;;;;;;27.34;41.60;101340.20;1696497;84;21548;-88
2022/07/02 14:34:33;;;;;;;2.08;1.10;;;;;;;27.46;41.66;101340.88;1696407;84;21256;-89
2022/07/02 14:37:00;;;;;;;3.40;1.27;;;;;;;27.54;41.32;101341.02;1696602;84;21043;-89
2022/07/02 14:39:27;;;;;;;2.37;1.20;;;;;;;27.60;40.71;101339.59;1696632;84;21050;-89
2022/07/02 14:41:54;;;;;;;3.67;1.10;;;;;;;27.68;40.71;101338.36;1697172;84;21015;-92
2022/07/02 14:44:21;;;;;;;1.90;1.42;;;;;;;27.69;39.81;101333.34;1697316;83;21544;-90
2022/07/02 14:46:48;;;;;;;4.60;1.20;;;;;;;27.61;39.79;101323.80;1697186;84;21132;-90
2022/07/02 14:49:15;;;;;;;1.67;1.00;;;;;;;27.53;39.39;101319.13;1675612;84;21027;-90
2022/07/02 14:51:43;;;;;;;1.10;0.90;;;;;;;27.31;39.34;101323.49;1668284;84;21730;-89
2022/07/02 14:54:11;;;;;;;1.95;1.20;;;;;;;26.97;39.66;101318.52;1675385;84;21046;-90
2022/07/02 14:56:38;;;;;;;1.80;1.20;;;;;;;26.61;39.87;101326.27;1670736;84;21095;-89
2022/07/02 14:59:11;;;;;;;2.80;1.15;;;;;;;26.38;40.17;101321.59;1668148;84;21636;-90
2022/07/02 15:01:34;;;;;;;3.00;1.00;;;;;;;26.16;40.35;101323.11;1673439;84;21086;-89
2022/07/02 15:04:01;;;;;;;2.85;1.40;;;;;;;25.93;40.31;101319.27;1671060;84;21449;-94
2022/07/02 15:06:29;;;;;;;3.47;1.20;;;;;;;25.73;40.56;101318.30;1668082;84;21536;-89
2022/07/02 15:08:56;;;;;;;2.58;1.32;;;;;;;25.56;40.72;101322.44;1666560;84;21072;-88
2022/07/02 15:11:25;;;;;;;3.22;1.27;;;;;;;25.36;40.56;101315.25;1671415;84;21178;-89
2022/07/02 15:16:38;;;;;;;3.58;1.40;;;;;;;25.00;40.63;101323.16;1670929;84;21099;-88
2022/07/02 15:19:05;;;;;;;2.35;1.10;;;;;;;25.03;41.50;101321.59;1667605;84;21060;-89
2022/07/02 15:21:38;;;;;;;4.22;1.42;;;;;;;25.21;42.18;101309.33;1637108;85;21021;-88
2022/07/02 15:24:09;;;;;;;1.17;1.00;;;;;;;25.35;41.70;101313.53;1646782;85;21168;-88
2022/07/02 15:26:38;;;;;;;1.90;1.30;;;;;;;25.34;41.40;101318.05;1648421;85;21070;-88
2022/07/02 15:29:07;;;;;;;1.20;1.10;;;;;;;25.42;41.09;101312.03;1647159;85;21087;-89
2022/07/02 15:31:36;;;;;;;1.37;1.07;;;;;;;25.54;41.06;101313.66;1653838;85;21081;-88
2022/07/02 15:34:03;;;;;;;;;;;;;;;25.73;40.70;101308.05;1649539;85;21732;-88
2022/07/02 15:36:33;;;;;;;1.92;1.32;;;;;;;25.82;40.50;101304.06;1647151;85;21931;-88
2022/07/02 15:39:03;;;;;;;2.35;1.30;;;;;;;25.92;40.95;101299.28;1646979;85;21048;-88
2022/07/02 15:41:31;;;;;;;1.77;1.07;;;;;;;26.01;40.43;101295.77;1663865;85;21047;-88
2022/07/02 15:44:00;;;;;;;3.20;1.80;;;;;;;26.04;40.25;101292.31;1658616;85;21552;-88
2022/07/02 15:46:30;;;;;;;1.67;1.07;;;;;;;26.08;40.25;101290.70;1666977;85;26712;-88
2022/07/02 15:48:58;;;;;;;2.75;1.22;;;;;;;26.13;40.22;101285.27;1652404;85;21890;-89
2022/07/02 15:51:40;;;;;;;2.92;1.32;;;;;;;26.18;40.15;101281.69;1678207;85;21084;-89
2022/07/02 15:54:28;;;;;;;2.27;1.10;;;;;;;26.25;40.45;101282.84;1676986;85;21079;-88
2022/07/02 15:57:05;;;;;;;2.27;1.10;;;;;;;26.28;40.24;101284.42;1678621;84;21026;-88
2022/07/02 15:59:35;;;;;;;2.27;1.20;;;;;;;26.19;39.50;101275.34;1678846;85;21006;-87
2022/07/02 16:02:06;;;;;;;1.80;1.20;;;;;;;26.13;39.55;101281.73;1674266;85;21468;-87
2022/07/02 16:04:37;;;;;;;3.00;1.00;;;;;;;26.11;39.34;101273.83;1671123;85;21046;-89
2022/07/02 16:07:08;;;;;;;1.90;1.20;;;;;;;26.11;39.46;101272.48;1672982;85;21462;-89
2022/07/02 16:09:36;;;;;;;4.72;1.35;;;;;;;26.14;39.57;101273.55;1671797;85;21593;-88
2022/07/02 16:12:05;;;;;;;1.17;0.82;;;;;;;26.20;39.42;101270.81;1662090;85;21094;-87
2022/07/02 16:14:32;;;;;;;3.30;1.42;;;;;;;26.17;38.80;101274.63;1647448;85;21964;-87
2022/07/02 16:16:59;;;;;;;3.50;1.30;;;;;;;26.16;38.70;101277.43;1647053;85;22066;-88
2022/07/02 16:19:26;;;;;;;1.50;1.05;;;;;;;26.12;38.57;101266.62;1647274;85;21096;-87
2022/07/02 16:21:53;;;;;;;1.05;0.93;;;;;;;26.09;38.25;101266.89;1643187;86;21594;-87
2022/07/02 16:24:23;;;;;;;2.17;1.50;;;;;;;26.01;38.03;101268.91;1636809;86;21076;-87
2022/07/02 16:26:52;;;;;;;3.30;2.80;;;;;;;25.99;38.35;101267.69;1636672;86;21139;-87
2022/07/02 16:29:23;;;;;;;3.98;1.85;;;;;;;25.96;38.47;101261.75;1636750;86;21104;-87
2022/07/02 16:31:58;;;;;;;1.90;1.10;;;;;;;25.97;39.08;101272.87;1636403;86;21549;-86
2022/07/02 16:34:53;;;;;;;3.47;1.90;;;;;;;25.96;39.16;101269.80;1636920;86;21026;-86
2022/07/02 16:37:25;;;;;;;3.27;1.50;;;;;;;25.92;39.16;101270.58;1636591;86;21002;-86
2022/07/02 16:40:00;;;;;;;2.12;1.35;;;;;;;25.86;39.04;101270.28;1636420;86;21146;-84
2022/07/02 16:42:29;;;;;;;1.30;1.20;;;;;;;25.81;39.43;101268.80;1636811;86;21010;-84
2022/07/02 16:44:56;;;;;;;;;;;;;;;25.83;39.66;101260.66;1639182;86;21077;-84
2022/07/02 16:47:41;;;;;;;1.30;1.05;;;;;;;25.85;39.35;101258.66;1624246;87;20196;-83
2022/07/02 16:50:11;;;;;;;3.67;1.25;;;;;;;25.80;39.74;101259.52;1624427;87;21140;-84
2022/07/02 16:52:43;;;;;;;3.60;0.95;;;;;;;25.75;39.47;101253.73;1624182;88;21109;-83
2022/07/02 16:55:11;;;;;;;1.50;0.98;;;;;;;25.68;39.76;101253.40;1624291;88;21053;-84
2022/07/02 16:57:42;;;;;;;2.10;0.93;;;;;;;25.59;39.87;101251.53;1624205;87;21113;-83
2022/07/02 17:00:12;;;;;;;2.42;1.20;;;;;;;25.57;39.85;101248.12;1624313;88;21482;-80
2022/07/02 17:02:42;;;;;;;2.05;1.15;;;;;;;25.51;39.88;101244.13;1624204;88;21584;-80
2022/07/02 17:05:09;;;;;;;2.17;1.17;;;;;;;25.41;40.09;101244.56;1624307;87;21137;-84
2022/07/02 17:07:36;;;;;;;3.62;1.00;;;;;;;25.31;40.17;101236.97;1624133;87;21053;-84
2022/07/02 17:11:28;;;;;;;2.22;1.02;;;;;;;25.15;40.34;101241.45;1624200;87;21061;-84
2022/07/02 17:12:34;;;;;;;2.02;1.10;;;;;;;25.02;40.32;101236.73;1620496;88;21065;-83
2022/07/02 17:15:01;;;;;;;3.47;1.32;;;;;;;24.93;40.54;101233.84;1624235;87;21308;-83
2022/07/02 17:17:28;;;;;;;2.83;1.00;;;;;;;24.84;40.55;101235.97;1624540;87;21931;-84
2022/07/02 17:19:55;;;;;;;1.87;1.27;;;;;;;24.71;40.69;101228.09;1624173;87;21062;-83
2022/07/02 17:22:22;;;;;;;1.40;1.12;;;;;;;24.62;40.74;101228.88;1624427;87;21089;-83
2022/07/02 17:24:49;;;;;;;2.15;1.20;;;;;;;24.53;40.82;101233.66;1625000;86;21074;-84
2022/07/02 17:27:17;;;;;;;2.02;1.20;;;;;;;24.44;40.86;101227.24;1624828;88;21064;-84
2022/07/02 17:29:44;;;;;;;1.65;1.20;;;;;;;24.35;41.00;101220.41;1624624;88;21181;-83
2022/07/02 17:32:11;;;;;;;3.37;1.15;;;;;;;24.23;41.35;101214.23;1624781;88;21080;-83
2022/07/02 17:34:41;;;;;;;3.67;0.90;;;;;;;24.14;41.58;101217.64;1624539;88;21100;-84
2022/07/02 17:37:07;;;;;;;2.72;1.22;;;;;;;24.04;41.71;101212.19;1624896;88;21058;-83
2022/07/02 17:39:35;;;;;;;3.47;1.20;;;;;;;23.93;41.75;101202.84;1624597;87;21637;-83
2022/07/02 17:42:04;;;;;;;2.50;1.10;;;;;;;23.82;41.80;101205.03;1624942;86;21155;-83
2022/07/02 17:44:32;;;;;;;2.42;1.22;;;;;;;23.75;42.11;101201.12;1624644;87;21304;-83
2022/07/02 17:46:59;;;;;;;3.33;1.45;;;;;;;23.68;42.04;101196.73;1625079;87;21041;-83
2022/07/02 17:49:26;;;;;;;2.45;1.20;;;;;;;23.62;42.37;101195.05;1624809;86;21108;-83
2022/07/02 17:51:53;;;;;;;1.85;1.42;;;;;;;23.56;42.71;101195.05;1624725;88;21084;-84
2022/07/02 17:54:20;;;;;;;2.15;1.32;;;;;;;23.49;42.80;101194.66;1624960;86;21119;-83
2022/07/02 17:56:47;;;;;;;3.98;1.40;;;;;;;23.44;42.94;101197.34;1626393;86;21085;-83
2022/07/02 17:59:15;;;;;;;4.00;1.65;;;;;;;23.38;43.33;101194.66;1624672;86;21046;-84
2022/07/02 18:01:42;;;;;;;3.20;1.00;;;;;;;23.31;43.40;101193.45;1624973;88;21566;-84
2022/07/02 18:04:09;;;;;;;2.42;1.20;;;;;;;23.23;43.54;101189.19;1624799;87;21531;-80
2022/07/02 18:06:36;;;;;;;3.85;1.55;;;;;;;23.13;43.74;101185.02;1625046;87;21093;-82
2022/07/02 18:09:03;;;;;;;2.62;1.42;;;;;;;23.03;44.80;101180.88;1624712;88;21515;-82
2022/07/02 18:11:35;;;;;;;3.17;1.57;;;;;;;22.89;45.83;101176.56;1624279;86;21072;-84
2022/07/02 18:14:06;;;;;;;5.47;1.80;;;;;;;22.70;46.44;101178.45;1630428;86;21068;-83
2022/07/02 18:16:38;;;;;;;1.98;1.50;;;;;;;22.52;47.01;101175.81;1624773;88;21203;-85
2022/07/02 18:19:09;;;;;;;1.62;1.20;;;;;;;22.35;47.62;101182.41;1624989;86;22206;-85
2022/07/02 18:21:38;;;;;;;3.37;1.25;;;;;;;22.15;48.20;101174.52;1624625;86;20977;-85
2022/07/02 18:24:09;;;;;;;4.20;1.42;;;;;;;22.01;48.76;101178.20;1624667;86;21565;-85
2022/07/02 18:26:49;;;;;;;1.90;1.45;;;;;;;21.85;49.26;101182.94;1624591;87;21113;-86
2022/07/02 18:29:20;;;;;;;3.10;1.50;;;;;;;21.68;49.50;101184.63;1624994;87;21609;-84
2022/07/02 18:31:52;;;;;;;1.62;1.30;;;;;;;21.51;50.38;101187.16;1624794;86;21080;-84
2022/07/02 18:34:20;;;;;;;1.65;1.42;;;;;;;21.35;50.84;101183.34;1624853;88;21133;-84
2022/07/02 18:36:50;;;;;;;2.58;1.70;;;;;;;21.23;51.48;101183.73;1624602;87;21065;-84
2022/07/02 18:39:24;;;;;;;2.77;1.75;;;;;;;21.12;51.97;101185.80;1624724;86;21117;-84
2022/07/02 18:41:52;;;;;;;3.08;1.72;;;;;;;21.00;52.42;101183.95;1624730;87;21088;-86
2022/07/02 18:44:22;;;;;;;3.10;1.80;;;;;;;20.90;52.90;101182.90;1625121;88;21194;-84
2022/07/02 18:46:50;;;;;;;4.62;1.82;;;;;;;20.83;53.22;101194.92;1624627;87;21100;-83
2022/07/02 18:49:17;;;;;;;2.33;1.70;;;;;;;20.76;53.15;101194.94;1624908;87;21065;-84
2022/07/02 18:51:47;;;;;;;4.17;1.70;;;;;;;20.68;53.74;101202.98;1624624;87;21080;-84
2022/07/02 18:54:14;;;;;;;3.42;1.60;;;;;;;20.59;53.84;101209.39;1624861;88;21064;-84
2022/07/02 18:56:43;;;;;;;2.20;1.82;;;;;;;20.51;53.95;101205.89;1624525;87;22081;-84
2022/07/02 18:59:15;;;;;;;2.20;1.57;;;;;;;20.43;54.60;101210.38;1624809;86;21014;-86
2022/07/02 19:01:42;;;;;;;3.08;1.90;;;;;;;20.37;54.99;101212.57;1624702;88;21485;-86
2022/07/02 19:04:10;;;;;;;5.35;1.80;;;;;;;20.25;55.16;101214.23;1624832;86;21101;-86
2022/07/02 19:06:37;;;;;;;3.08;2.20;;;;;;;20.14;55.66;101212.73;1624676;86;21037;-85
2022/07/02 19:09:05;;;;;;;3.47;2.00;;;;;;;20.00;55.98;101217.61;1624768;87;21114;-83
2022/07/02 19:11:33;;;;;;;2.60;1.85;;;;;;;19.87;56.59;101221.99;1624570;88;21109;-85
2022/07/02 19:14:03;;;;;;;4.28;2.40;;;;;;;19.76;56.86;101218.22;1624782;88;21057;-83
2022/07/02 19:16:30;;;;;;;3.85;2.30;;;;;;;19.64;57.25;101224.25;1624801;88;21049;-85
2022/07/02 19:18:57;;;;;;;3.10;2.37;;;;;;;19.51;57.87;101218.86;1624892;88;21130;-84
2022/07/02 19:21:25;;;;;;;4.85;2.42;;;;;;;19.41;58.51;101226.16;1566453;88;22195;-83
2022/07/02 19:23:53;;;;;;;4.30;2.80;;;;;;;19.29;58.98;101227.28;1629498;86;21565;-87
2022/07/02 19:31:54;;;;;;;3.58;2.37;;;;;;;18.97;59.47;101219.05;1631398;86;21147;-87
2022/07/02 19:34:22;;;;;;;2.80;2.35;;;;;;;18.83;59.97;101230.00;1631172;86;21299;-84
2022/07/02 19:36:49;;;;;;;3.92;2.30;;;;;;;18.70;60.23;101230.30;1631184;86;21620;-84
2022/07/02 19:39:17;;;;;;;4.22;2.25;;;;;;;18.59;60.38;101229.58;1631550;87;21097;-87
2022/07/02 19:41:45;;;;;;;3.80;2.27;;;;;;;18.50;60.55;101234.10;1631319;87;21126;-85
2022/07/02 19:44:13;;;;;;;3.58;2.10;;;;;;;18.40;60.77;101233.78;1631315;88;21533;-82
2022/07/02 19:46:41;;;;;;;2.62;2.42;;;;;;;18.31;61.06;101231.62;1607171;87;21251;-86
2022/07/02 19:49:08;;;;;;;2.35;2.15;;;;;;;18.21;61.69;101240.59;1631418;86;21509;-84
2022/07/02 19:51:35;;;;;;;5.90;2.35;;;;;;;18.16;62.21;101236.47;1631227;86;21097;-83
2022/07/02 19:54:04;;;;;;;4.30;2.35;;;;;;;18.06;62.36;101235.64;1631234;88;21060;-83
2022/07/02 19:56:32;;;;;;;7.80;2.80;;;;;;;17.99;62.61;101236.08;1631373;87;21033;-83
2022/07/02 19:58:59;;;;;;;3.85;2.90;;;;;;;17.94;62.62;101237.65;1631319;86;21121;-86
2022/07/02 20:01:27;;;;;;;8.35;4.30;;;;;;;17.89;62.77;101237.52;1631273;88;21582;-86
2022/07/02 20:03:54;;;;;;;7.37;4.95;;;;;;;17.79;63.10;101242.00;1631542;88;21096;-86
2022/07/02 20:06:22;;;;;;;8.75;4.72;;;;;;;17.73;63.28;101238.77;1631435;86;21105;-86